createdAt,value
2018-03-04T00:01:04.474Z,0
2018-03-04T00:02:14.428Z,0
2018-03-04T00:03:24.128Z,0
2018-03-04T00:04:33.583Z,0
2018-03-04T00:05:43.280Z,0
2018-03-04T00:06:53.238Z,0
2018-03-04T00:08:03.193Z,0
2018-03-04T00:09:12.896Z,0
2018-03-04T00:10:22.333Z,0
2018-03-04T00:11:32.293Z,0
2018-03-04T00:12:42.246Z,0
2018-03-04T00:13:51.940Z,0
2018-03-04T00:15:01.898Z,0
2018-03-04T00:16:11.611Z,0
2018-03-04T00:17:21.300Z,0
2018-03-04T00:18:31.000Z,0
2018-03-04T00:19:40.959Z,0
2018-03-04T00:20:50.924Z,0
2018-03-04T00:22:00.606Z,0
2018-03-04T00:23:10.084Z,0
2018-03-04T00:24:19.789Z,0
2018-03-04T00:25:29.753Z,0
2018-03-04T00:26:39.439Z,0
2018-03-04T00:27:49.567Z,0
2018-03-04T00:28:59.520Z,0
2018-03-04T00:30:09.228Z,0
2018-03-04T00:31:18.924Z,0
2018-03-04T00:32:28.357Z,0
2018-03-04T00:33:38.051Z,0
2018-03-04T00:34:48.000Z,0
2018-03-04T00:35:57.186Z,0
2018-03-04T00:37:06.892Z,0
2018-03-04T00:38:16.585Z,0
2018-03-04T00:39:26.546Z,0
2018-03-04T00:40:35.988Z,0
2018-03-04T00:41:45.708Z,0
2018-03-04T00:42:55.405Z,0
2018-03-04T00:44:05.107Z,0
2018-03-04T00:45:15.062Z,0
2018-03-04T00:46:25.005Z,0
2018-03-04T00:47:34.695Z,0
2018-03-04T00:48:44.393Z,0
2018-03-04T00:49:54.354Z,0
2018-03-04T00:51:04.292Z,0
2018-03-04T00:52:14.006Z,0
2018-03-04T00:53:23.735Z,0
2018-03-04T00:54:33.423Z,0
2018-03-04T00:55:43.120Z,0
2018-03-04T00:56:53.085Z,0
2018-03-04T00:58:03.282Z,0
2018-03-04T00:59:13.224Z,0
2018-03-04T01:00:22.926Z,0
2018-03-04T01:01:32.609Z,0
2018-03-04T01:02:42.305Z,0
2018-03-04T01:03:52.267Z,0
2018-03-04T01:05:01.693Z,0
2018-03-04T01:06:11.644Z,0
2018-03-04T01:07:21.347Z,0
2018-03-04T01:08:30.775Z,0
2018-03-04T01:09:40.718Z,0
2018-03-04T01:10:50.440Z,0
2018-03-04T01:12:00.153Z,0
2018-03-04T01:13:10.115Z,0
2018-03-04T01:14:19.293Z,0
2018-03-04T01:15:29.238Z,0
2018-03-04T01:16:38.942Z,0
2018-03-04T01:17:48.379Z,0
2018-03-04T01:18:57.844Z,0
2018-03-04T01:20:08.037Z,0
2018-03-04T01:21:17.726Z,0
2018-03-04T01:22:27.691Z,0
2018-03-04T01:23:37.376Z,0
2018-03-04T01:24:47.072Z,0
2018-03-04T01:25:56.761Z,0
2018-03-04T01:27:06.707Z,0
2018-03-04T01:28:16.134Z,0
2018-03-04T01:29:26.073Z,0
2018-03-04T01:30:35.768Z,0
2018-03-04T01:31:45.731Z,0
2018-03-04T01:32:55.736Z,0
2018-03-04T01:34:05.422Z,0
2018-03-04T01:35:15.363Z,0
2018-03-04T01:36:25.047Z,0
2018-03-04T01:37:34.755Z,0
2018-03-04T01:38:44.442Z,0
2018-03-04T01:39:54.135Z,0
2018-03-04T01:41:03.581Z,0
2018-03-04T01:42:13.532Z,0
2018-03-04T01:43:23.489Z,0
2018-03-04T01:44:33.435Z,0
2018-03-04T01:45:42.864Z,0
2018-03-04T01:46:52.809Z,0
2018-03-04T01:48:02.920Z,0
2018-03-04T01:49:12.622Z,0
2018-03-04T01:50:22.576Z,0
2018-03-04T01:51:32.264Z,0
2018-03-04T01:52:41.701Z,0
2018-03-04T01:53:51.656Z,0
2018-03-04T01:55:01.088Z,0
2018-03-04T01:56:10.767Z,0
2018-03-04T01:57:20.474Z,0
2018-03-04T01:58:29.893Z,0
2018-03-04T01:59:39.585Z,0
2018-03-04T02:00:49.274Z,0
2018-03-04T02:01:58.953Z,0
2018-03-04T02:03:08.125Z,0
2018-03-04T02:04:17.829Z,0
2018-03-04T02:05:27.513Z,0
2018-03-04T02:06:37.197Z,0
2018-03-04T02:07:46.620Z,0
2018-03-04T02:08:56.048Z,0
2018-03-04T02:10:05.740Z,0
2018-03-04T02:11:15.445Z,0
2018-03-04T02:12:24.875Z,0
2018-03-04T02:13:34.579Z,0
2018-03-04T02:14:44.525Z,0
2018-03-04T02:15:54.213Z,0
2018-03-04T02:17:04.214Z,0
2018-03-04T02:18:13.907Z,0
2018-03-04T02:19:23.851Z,0
2018-03-04T02:20:33.279Z,0
2018-03-04T02:21:42.974Z,0
2018-03-04T02:22:52.964Z,0
2018-03-04T02:24:02.410Z,0
2018-03-04T02:25:11.849Z,0
2018-03-04T02:26:21.805Z,0
2018-03-04T02:27:31.745Z,0
2018-03-04T02:28:41.692Z,0
2018-03-04T02:29:51.649Z,0
2018-03-04T02:31:01.396Z,0
2018-03-04T02:32:11.089Z,0
2018-03-04T02:33:20.558Z,0
2018-03-04T02:34:30.773Z,0
2018-03-04T02:35:40.202Z,0
2018-03-04T02:36:49.893Z,0
2018-03-04T02:37:59.850Z,0
2018-03-04T02:39:09.840Z,0
2018-03-04T02:40:20.045Z,0
2018-03-04T02:41:30.004Z,0
2018-03-04T02:42:39.708Z,0
2018-03-04T02:43:49.677Z,0
2018-03-04T02:44:59.378Z,0
2018-03-04T02:46:09.325Z,0
2018-03-04T02:47:18.756Z,0
2018-03-04T02:48:28.803Z,0
2018-03-04T02:49:38.776Z,0
2018-03-04T02:50:48.728Z,0
2018-03-04T02:51:59.005Z,0
2018-03-04T02:53:08.723Z,0
2018-03-04T02:54:18.436Z,0
2018-03-04T02:55:28.408Z,0
2018-03-04T02:56:38.378Z,0
2018-03-04T02:57:47.801Z,0
2018-03-04T02:58:57.531Z,0
2018-03-04T03:00:07.254Z,0
2018-03-04T03:01:16.955Z,0
2018-03-04T03:02:26.129Z,0
2018-03-04T03:03:36.106Z,0
2018-03-04T03:04:45.822Z,0
2018-03-04T03:05:55.519Z,0
2018-03-04T03:07:05.224Z,0
2018-03-04T03:08:15.182Z,0
2018-03-04T03:09:25.133Z,0
2018-03-04T03:10:34.820Z,0
2018-03-04T03:11:44.506Z,0
2018-03-04T03:12:54.496Z,0
2018-03-04T03:14:04.175Z,0
2018-03-04T03:15:14.201Z,0
2018-03-04T03:16:23.628Z,0
2018-03-04T03:17:33.044Z,0
2018-03-04T03:18:42.734Z,0
2018-03-04T03:19:52.680Z,0
2018-03-04T03:21:02.431Z,0
2018-03-04T03:22:12.115Z,0
2018-03-04T03:23:21.820Z,0
2018-03-04T03:24:31.779Z,0
2018-03-04T03:25:41.220Z,0
2018-03-04T03:26:51.169Z,0
2018-03-04T03:28:01.139Z,0
2018-03-04T03:29:10.820Z,0
2018-03-04T03:30:20.792Z,0
2018-03-04T03:31:30.227Z,0
2018-03-04T03:32:39.908Z,0
2018-03-04T03:33:49.351Z,0
2018-03-04T03:34:59.034Z,0
2018-03-04T03:36:08.469Z,0
2018-03-04T03:37:18.419Z,0
2018-03-04T03:38:28.254Z,0
2018-03-04T03:39:37.959Z,0
2018-03-04T03:40:47.386Z,0
2018-03-04T03:41:57.079Z,0
2018-03-04T03:43:06.763Z,0
2018-03-04T03:44:15.941Z,0
2018-03-04T03:45:25.888Z,0
2018-03-04T03:46:35.110Z,0
2018-03-04T03:47:45.059Z,0
2018-03-04T03:48:55.006Z,0
2018-03-04T03:50:04.700Z,0
2018-03-04T03:51:14.126Z,0
2018-03-04T03:52:24.077Z,0
2018-03-04T03:53:34.024Z,0
2018-03-04T03:54:43.730Z,0
2018-03-04T03:55:53.665Z,0
2018-03-04T03:57:03.843Z,0
2018-03-04T03:58:13.528Z,0
2018-03-04T03:59:23.466Z,0
2018-03-04T04:00:33.162Z,0
2018-03-04T04:01:43.109Z,0
2018-03-04T04:02:53.076Z,0
2018-03-04T04:04:03.017Z,0
2018-03-04T04:05:12.973Z,0
2018-03-04T04:06:23.178Z,0
2018-03-04T04:07:33.124Z,0
2018-03-04T04:08:43.064Z,0
2018-03-04T04:09:52.503Z,0
2018-03-04T04:11:02.196Z,0
2018-03-04T04:12:11.893Z,0
2018-03-04T04:13:21.323Z,0
2018-03-04T04:14:31.269Z,0
2018-03-04T04:15:40.961Z,0
2018-03-04T04:16:50.383Z,0
2018-03-04T04:17:59.811Z,0
2018-03-04T04:19:09.496Z,0
2018-03-04T04:20:19.514Z,0
2018-03-04T04:21:29.465Z,0
2018-03-04T04:22:39.466Z,0
2018-03-04T04:23:49.413Z,0
2018-03-04T04:24:58.579Z,0
2018-03-04T04:26:08.276Z,0
2018-03-04T04:27:17.968Z,0
2018-03-04T04:28:27.917Z,0
2018-03-04T04:29:37.868Z,0
2018-03-04T04:30:47.807Z,0
2018-03-04T04:31:57.909Z,0
2018-03-04T04:33:07.905Z,0
2018-03-04T04:34:17.856Z,0
2018-03-04T04:35:27.809Z,0
2018-03-04T04:36:37.755Z,0
2018-03-04T04:37:47.696Z,0
2018-03-04T04:38:57.632Z,0
2018-03-04T04:40:07.602Z,0
2018-03-04T04:41:17.541Z,0
2018-03-04T04:42:27.229Z,0
2018-03-04T04:43:36.427Z,0
2018-03-04T04:44:45.859Z,0
2018-03-04T04:45:55.818Z,0
2018-03-04T04:47:05.504Z,0
2018-03-04T04:48:15.697Z,0
2018-03-04T04:49:25.666Z,0
2018-03-04T04:50:35.355Z,0
2018-03-04T04:51:45.047Z,0
2018-03-04T04:52:54.734Z,0
2018-03-04T04:54:04.515Z,0
2018-03-04T04:55:14.472Z,0
2018-03-04T04:56:23.660Z,0
2018-03-04T04:57:33.599Z,0
2018-03-04T04:58:43.798Z,0
2018-03-04T04:59:53.229Z,0
2018-03-04T05:01:02.667Z,0
2018-03-04T05:02:12.102Z,0
2018-03-04T05:03:22.054Z,0
2018-03-04T05:04:31.738Z,0
2018-03-04T05:05:41.440Z,0
2018-03-04T05:06:51.120Z,0
2018-03-04T05:08:00.802Z,0
2018-03-04T05:09:10.748Z,0
2018-03-04T05:10:20.174Z,0
2018-03-04T05:11:29.872Z,0
2018-03-04T05:12:39.560Z,0
2018-03-04T05:13:49.504Z,0
2018-03-04T05:14:58.945Z,0
2018-03-04T05:16:08.626Z,0
2018-03-04T05:17:18.315Z,0
2018-03-04T05:18:27.754Z,0
2018-03-04T05:19:37.181Z,0
2018-03-04T05:20:46.602Z,0
2018-03-04T05:21:56.285Z,0
2018-03-04T05:23:06.235Z,0
2018-03-04T05:24:15.945Z,0
2018-03-04T05:25:25.644Z,0
2018-03-04T05:26:35.331Z,0
2018-03-04T05:27:45.010Z,0
2018-03-04T05:28:54.698Z,0
2018-03-04T05:30:04.377Z,0
2018-03-04T05:31:13.808Z,0
2018-03-04T05:32:23.488Z,0
2018-03-04T05:33:33.171Z,0
2018-03-04T05:34:43.121Z,0
2018-03-04T05:35:53.298Z,5
2018-03-04T05:37:02.733Z,5
2018-03-04T05:38:12.672Z,5
2018-03-04T05:39:22.362Z,5
2018-03-04T05:40:32.578Z,5
2018-03-04T05:41:42.525Z,10
2018-03-04T05:42:52.216Z,10
2018-03-04T05:44:02.152Z,10
2018-03-04T05:45:12.100Z,10
2018-03-04T05:46:22.062Z,15
2018-03-04T05:47:31.244Z,15
2018-03-04T05:48:40.939Z,15
2018-03-04T05:49:50.886Z,20
2018-03-04T05:51:00.317Z,20
2018-03-04T05:52:10.260Z,20
2018-03-04T05:53:19.947Z,25
2018-03-04T05:54:29.890Z,25
2018-03-04T05:55:39.840Z,30
2018-03-04T05:56:49.022Z,30
2018-03-04T05:57:58.972Z,35
2018-03-04T05:59:08.655Z,35
2018-03-04T06:00:18.081Z,40
2018-03-04T06:01:27.510Z,40
2018-03-04T06:02:37.228Z,45
2018-03-04T06:03:46.913Z,45
2018-03-04T06:04:56.339Z,50
2018-03-04T06:06:06.021Z,50
2018-03-04T06:07:16.224Z,55
2018-03-04T06:08:25.914Z,55
2018-03-04T06:09:35.603Z,60
2018-03-04T06:10:45.563Z,65
2018-03-04T06:11:55.531Z,65
2018-03-04T06:13:05.215Z,70
2018-03-04T06:14:14.906Z,75
2018-03-04T06:15:24.596Z,75
2018-03-04T06:16:34.297Z,80
2018-03-04T06:17:43.980Z,80
2018-03-04T06:18:53.968Z,80
2018-03-04T06:20:03.662Z,80
2018-03-04T06:21:13.621Z,85
2018-03-04T06:22:23.304Z,90
2018-03-04T06:23:33.254Z,90
2018-03-04T06:24:43.320Z,95
2018-03-04T06:25:52.763Z,100
2018-03-04T06:27:02.464Z,100
2018-03-04T06:28:12.426Z,105
2018-03-04T06:29:22.373Z,110
2018-03-04T06:30:32.328Z,110
2018-03-04T06:31:42.027Z,115
2018-03-04T06:32:51.457Z,115
2018-03-04T06:34:01.408Z,120
2018-03-04T06:35:11.360Z,125
2018-03-04T06:36:20.525Z,130
2018-03-04T06:37:29.966Z,130
2018-03-04T06:38:39.394Z,135
2018-03-04T06:39:48.831Z,135
2018-03-04T06:40:58.526Z,140
2018-03-04T06:42:08.478Z,145
2018-03-04T06:43:18.563Z,150
2018-03-04T06:44:28.522Z,150
2018-03-04T06:45:38.472Z,155
2018-03-04T06:46:48.429Z,160
2018-03-04T06:47:57.645Z,160
2018-03-04T06:49:07.619Z,165
2018-03-04T06:50:17.322Z,170
2018-03-04T06:51:27.277Z,170
2018-03-04T06:52:36.714Z,175
2018-03-04T06:53:46.663Z,175
2018-03-04T06:54:56.349Z,180
2018-03-04T06:56:06.049Z,185
2018-03-04T06:57:15.733Z,185
2018-03-04T06:58:25.462Z,190
2018-03-04T06:59:35.150Z,195
2018-03-04T07:00:45.095Z,195
2018-03-04T07:01:54.521Z,200
2018-03-04T07:03:04.248Z,205
2018-03-04T07:04:14.209Z,205
2018-03-04T07:05:24.165Z,210
2018-03-04T07:06:33.603Z,210
2018-03-04T07:07:43.301Z,215
2018-03-04T07:08:53.022Z,225
2018-03-04T07:10:02.199Z,230
2018-03-04T07:11:11.632Z,235
2018-03-04T07:12:21.586Z,240
2018-03-04T07:13:31.548Z,250
2018-03-04T07:14:40.728Z,250
2018-03-04T07:15:50.423Z,250
2018-03-04T07:17:00.277Z,245
2018-03-04T07:18:10.027Z,235
2018-03-04T07:19:19.985Z,230
2018-03-04T07:20:29.165Z,230
2018-03-04T07:21:39.122Z,230
2018-03-04T07:22:48.815Z,240
2018-03-04T07:23:58.246Z,240
2018-03-04T07:25:08.188Z,245
2018-03-04T07:26:18.143Z,235
2018-03-04T07:27:28.103Z,240
2018-03-04T07:28:37.811Z,250
2018-03-04T07:29:47.610Z,255
2018-03-04T07:30:57.041Z,250
2018-03-04T07:32:06.758Z,260
2018-03-04T07:33:16.721Z,270
2018-03-04T07:34:26.707Z,275
2018-03-04T07:35:36.400Z,275
2018-03-04T07:36:46.359Z,285
2018-03-04T07:37:56.319Z,290
2018-03-04T07:39:06.263Z,295
2018-03-04T07:40:15.705Z,300
2018-03-04T07:41:25.659Z,300
2018-03-04T07:42:35.629Z,300
2018-03-04T07:43:45.363Z,315
2018-03-04T07:44:55.323Z,335
2018-03-04T07:46:05.023Z,345
2018-03-04T07:47:14.992Z,355
2018-03-04T07:48:24.953Z,375
2018-03-04T07:49:34.642Z,405
2018-03-04T07:50:44.338Z,410
2018-03-04T07:51:54.287Z,415
2018-03-04T07:53:04.224Z,430
2018-03-04T07:54:14.181Z,425
2018-03-04T07:55:24.161Z,430
2018-03-04T07:56:33.855Z,435
2018-03-04T07:57:43.800Z,430
2018-03-04T07:58:53.237Z,430
2018-03-04T08:00:03.195Z,430
2018-03-04T08:01:13.143Z,440
2018-03-04T08:02:23.097Z,440
2018-03-04T08:03:32.803Z,440
2018-03-04T08:04:42.240Z,440
2018-03-04T08:05:51.940Z,440
2018-03-04T08:07:01.898Z,445
2018-03-04T08:08:11.882Z,440
2018-03-04T08:09:21.333Z,420
2018-03-04T08:10:31.034Z,410
2018-03-04T08:11:41.024Z,415
2018-03-04T08:12:50.494Z,410
2018-03-04T08:14:00.458Z,415
2018-03-04T08:15:10.425Z,425
2018-03-04T08:16:20.371Z,435
2018-03-04T08:17:29.814Z,445
2018-03-04T08:18:39.351Z,460
2018-03-04T08:19:49.065Z,460
2018-03-04T08:20:58.766Z,475
2018-03-04T08:22:08.465Z,650
2018-03-04T08:23:17.706Z,655
2018-03-04T08:24:27.664Z,660
2018-03-04T08:25:37.684Z,650
2018-03-04T08:26:47.642Z,645
2018-03-04T08:27:57.348Z,640
2018-03-04T08:29:07.051Z,665
2018-03-04T08:30:16.764Z,655
2018-03-04T08:31:25.934Z,655
2018-03-04T08:32:35.630Z,670
2018-03-04T08:33:45.614Z,685
2018-03-04T08:34:55.597Z,660
2018-03-04T08:36:05.326Z,670
2018-03-04T08:37:15.295Z,665
2018-03-04T08:38:24.996Z,680
2018-03-04T08:39:34.497Z,705
2018-03-04T08:40:43.698Z,730
2018-03-04T08:41:53.653Z,730
2018-03-04T08:43:03.616Z,700
2018-03-04T08:44:13.329Z,720
2018-03-04T08:45:23.290Z,745
2018-03-04T08:46:33.265Z,800
2018-03-04T08:47:43.216Z,785
2018-03-04T08:48:52.927Z,770
2018-03-04T08:50:02.894Z,785
2018-03-04T08:51:12.854Z,830
2018-03-04T08:52:22.810Z,860
2018-03-04T08:53:32.507Z,870
2018-03-04T08:54:42.210Z,880
2018-03-04T08:55:51.909Z,860
2018-03-04T08:57:01.886Z,870
2018-03-04T08:58:11.594Z,900
2018-03-04T08:59:21.756Z,925
2018-03-04T09:00:31.751Z,955
2018-03-04T09:01:41.448Z,925
2018-03-04T09:02:51.406Z,840
2018-03-04T09:04:01.441Z,890
2018-03-04T09:05:11.161Z,930
2018-03-04T09:06:21.118Z,885
2018-03-04T09:07:30.835Z,870
2018-03-04T09:08:40.389Z,840
2018-03-04T09:09:49.510Z,850
2018-03-04T09:10:59.476Z,880
2018-03-04T09:12:09.429Z,895
2018-03-04T09:13:19.416Z,900
2018-03-04T09:14:29.127Z,965
2018-03-04T09:15:39.091Z,985
2018-03-04T09:16:49.068Z,945
2018-03-04T09:17:58.857Z,920
2018-03-04T09:19:08.814Z,925
2018-03-04T09:20:18.541Z,900
2018-03-04T09:21:28.236Z,895
2018-03-04T09:22:38.207Z,865
2018-03-04T09:23:47.903Z,835
2018-03-04T09:24:57.624Z,800
2018-03-04T09:26:07.582Z,785
2018-03-04T09:27:17.554Z,815
2018-03-04T09:28:27.253Z,810
2018-03-04T09:29:36.830Z,800
2018-03-04T09:30:46.534Z,835
2018-03-04T09:31:56.256Z,850
2018-03-04T09:33:06.276Z,835
2018-03-04T09:34:16.378Z,810
2018-03-04T09:35:26.349Z,815
2018-03-04T09:36:36.040Z,870
2018-03-04T09:37:46.005Z,870
2018-03-04T09:38:55.974Z,875
2018-03-04T09:40:05.937Z,950
2018-03-04T09:41:15.910Z,960
2018-03-04T09:42:25.885Z,1015
2018-03-04T09:43:35.848Z,955
2018-03-04T09:44:45.840Z,990
2018-03-04T09:45:55.555Z,990
2018-03-04T09:47:05.526Z,915
2018-03-04T09:48:15.494Z,1145
2018-03-04T09:49:25.264Z,1220
2018-03-04T09:50:34.974Z,1160
2018-03-04T09:51:44.678Z,1170
2018-03-04T09:52:54.369Z,1180
2018-03-04T09:54:04.350Z,1200
2018-03-04T09:55:14.057Z,1420
2018-03-04T09:56:23.496Z,1405
2018-03-04T09:57:33.477Z,1480
2018-03-04T09:58:42.929Z,1505
2018-03-04T09:59:52.633Z,1515
2018-03-04T10:01:02.080Z,1470
2018-03-04T10:02:11.687Z,1425
2018-03-04T10:03:21.662Z,1395
2018-03-04T10:04:31.655Z,1390
2018-03-04T10:05:41.115Z,1415
2018-03-04T10:06:50.828Z,1325
2018-03-04T10:08:00.810Z,1200
2018-03-04T10:09:10.530Z,1120
2018-03-04T10:10:20.508Z,1160
2018-03-04T10:11:29.948Z,1155
2018-03-04T10:12:39.913Z,1090
2018-03-04T10:13:49.617Z,1055
2018-03-04T10:14:59.205Z,1125
2018-03-04T10:16:08.615Z,1205
2018-03-04T10:17:18.609Z,1175
2018-03-04T10:18:28.322Z,1130
2018-03-04T10:19:38.301Z,1205
2018-03-04T10:20:48.282Z,1200
2018-03-04T10:21:58.258Z,1120
2018-03-04T10:23:07.969Z,1175
2018-03-04T10:24:17.682Z,1225
2018-03-04T10:25:27.655Z,1255
2018-03-04T10:26:37.108Z,1295
2018-03-04T10:27:47.094Z,1435
2018-03-04T10:28:56.808Z,1850
2018-03-04T10:30:06.522Z,1820
2018-03-04T10:31:16.488Z,1855
2018-03-04T10:32:26.459Z,1900
2018-03-04T10:33:36.166Z,1955
2018-03-04T10:34:46.141Z,1985
2018-03-04T10:35:56.122Z,1875
2018-03-04T10:37:06.095Z,1825
2018-03-04T10:38:16.101Z,1820
2018-03-04T10:39:26.060Z,1865
2018-03-04T10:40:36.054Z,1910
2018-03-04T10:41:46.035Z,1795
2018-03-04T10:42:56.025Z,1760
2018-03-04T10:44:06.001Z,1850
2018-03-04T10:45:15.709Z,1905
2018-03-04T10:46:25.408Z,1915
2018-03-04T10:47:35.127Z,1890
2018-03-04T10:48:44.580Z,1880
2018-03-04T10:49:53.779Z,1930
2018-03-04T10:51:03.504Z,1925
2018-03-04T10:52:13.210Z,1955
2018-03-04T10:53:23.193Z,1990
2018-03-04T10:54:33.182Z,1985
2018-03-04T10:55:42.887Z,1990
2018-03-04T10:56:52.858Z,2035
2018-03-04T10:58:02.067Z,2005
2018-03-04T10:59:11.676Z,1980
2018-03-04T11:00:21.376Z,1915
2018-03-04T11:01:31.075Z,2250
2018-03-04T11:02:40.786Z,2395
2018-03-04T11:03:50.242Z,2130
2018-03-04T11:05:00.240Z,2105
2018-03-04T11:06:09.957Z,2120
2018-03-04T11:07:19.949Z,2160
2018-03-04T11:08:29.926Z,2255
2018-03-04T11:09:39.944Z,2185
2018-03-04T11:10:50.011Z,2165
2018-03-04T11:11:59.458Z,2175
2018-03-04T11:13:09.166Z,2045
2018-03-04T11:14:19.153Z,2100
2018-03-04T11:15:29.397Z,2255
2018-03-04T11:16:39.116Z,2260
2018-03-04T11:17:49.073Z,2215
2018-03-04T11:18:58.800Z,2245
2018-03-04T11:20:08.518Z,2245
2018-03-04T11:21:17.728Z,2150
2018-03-04T11:22:27.720Z,2060
2018-03-04T11:23:37.706Z,2105
2018-03-04T11:24:47.415Z,2160
2018-03-04T11:25:57.393Z,2100
2018-03-04T11:27:06.865Z,2170
2018-03-04T11:28:16.085Z,2245
2018-03-04T11:29:25.784Z,2225
2018-03-04T11:30:35.492Z,2190
2018-03-04T11:31:44.949Z,2220
2018-03-04T11:32:54.927Z,2230
2018-03-04T11:34:04.842Z,2245
2018-03-04T11:35:14.814Z,2230
2018-03-04T11:36:24.544Z,2230
2018-03-04T11:37:34.266Z,2295
2018-03-04T11:38:43.995Z,2365
2018-03-04T11:39:53.458Z,2410
2018-03-04T11:41:03.440Z,2395
2018-03-04T11:42:13.402Z,2435
2018-03-04T11:43:23.379Z,2440
2018-03-04T11:44:32.820Z,2605
2018-03-04T11:45:42.526Z,2465
2018-03-04T11:46:52.493Z,2290
2018-03-04T11:48:02.487Z,2225
2018-03-04T11:49:12.216Z,2120
2018-03-04T11:50:21.410Z,2120
2018-03-04T11:51:31.416Z,2170
2018-03-04T11:52:40.885Z,2285
2018-03-04T11:53:50.898Z,2260
2018-03-04T11:55:00.619Z,2290
2018-03-04T11:56:10.593Z,2350
2018-03-04T11:57:20.308Z,2400
2018-03-04T11:58:30.030Z,2410
2018-03-04T11:59:39.754Z,2410
2018-03-04T12:00:49.734Z,2445
2018-03-04T12:01:59.448Z,2475
2018-03-04T12:03:09.157Z,2505
2018-03-04T12:04:18.605Z,2455
2018-03-04T12:05:28.330Z,2445
2018-03-04T12:06:38.042Z,2385
2018-03-04T12:07:48.025Z,2385
2018-03-04T12:08:57.475Z,2415
2018-03-04T12:10:07.200Z,2420
2018-03-04T12:11:17.190Z,2420
2018-03-04T12:12:27.150Z,2400
2018-03-04T12:13:37.179Z,2415
2018-03-04T12:14:47.282Z,2460
2018-03-04T12:15:57.268Z,2420
2018-03-04T12:17:07.278Z,2245
2018-03-04T12:18:16.992Z,2035
2018-03-04T12:19:27.162Z,2065
2018-03-04T12:20:37.144Z,2300
2018-03-04T12:21:46.874Z,2430
2018-03-04T12:22:56.356Z,2410
2018-03-04T12:24:05.961Z,2415
2018-03-04T12:25:15.944Z,2430
2018-03-04T12:26:25.922Z,2280
2018-03-04T12:27:35.907Z,2235
2018-03-04T12:28:45.627Z,2280
2018-03-04T12:29:55.487Z,2425
2018-03-04T12:31:04.991Z,2485
2018-03-04T12:32:14.727Z,2435
2018-03-04T12:33:24.476Z,2360
2018-03-04T12:34:33.940Z,2300
2018-03-04T12:35:43.662Z,2360
2018-03-04T12:36:53.458Z,2400
2018-03-04T12:38:02.915Z,2455
2018-03-04T12:39:12.661Z,2450
2018-03-04T12:40:22.628Z,2455
2018-03-04T12:41:32.595Z,2470
2018-03-04T12:42:42.306Z,2375
2018-03-04T12:43:52.013Z,2235
2018-03-04T12:45:01.756Z,2275
2018-03-04T12:46:11.719Z,2370
2018-03-04T12:47:21.687Z,2390
2018-03-04T12:48:31.141Z,2400
2018-03-04T12:49:40.871Z,2460
2018-03-04T12:50:50.903Z,2505
2018-03-04T12:52:00.615Z,2510
2018-03-04T12:53:10.342Z,2455
2018-03-04T12:54:20.359Z,2370
2018-03-04T12:55:30.407Z,2275
2018-03-04T12:56:40.193Z,2315
2018-03-04T12:57:50.263Z,2355
2018-03-04T12:59:00.079Z,2385
2018-03-04T13:00:09.820Z,2395
2018-03-04T13:01:19.926Z,2345
2018-03-04T13:02:29.924Z,2365
2018-03-04T13:03:39.632Z,2355
2018-03-04T13:04:49.085Z,2265
2018-03-04T13:05:58.830Z,2290
2018-03-04T13:07:08.803Z,2295
2018-03-04T13:08:18.786Z,2225
2018-03-04T13:09:28.771Z,2190
2018-03-04T13:10:38.759Z,2270
2018-03-04T13:11:48.749Z,2320
2018-03-04T13:12:58.722Z,2365
2018-03-04T13:14:08.489Z,2340
2018-03-04T13:15:18.167Z,2270
2018-03-04T13:16:28.145Z,2245
2018-03-04T13:17:37.615Z,2300
2018-03-04T13:18:47.077Z,2335
2018-03-04T13:19:56.793Z,2290
2018-03-04T13:21:06.762Z,2265
2018-03-04T13:22:16.773Z,2265
2018-03-04T13:23:26.763Z,2275
2018-03-04T13:24:36.727Z,2260
2018-03-04T13:25:46.448Z,2240
2018-03-04T13:26:55.899Z,2220
2018-03-04T13:28:05.872Z,2130
2018-03-04T13:29:15.862Z,2075
2018-03-04T13:30:25.573Z,2205
2018-03-04T13:31:35.040Z,2315
2018-03-04T13:32:44.761Z,2280
2018-03-04T13:33:54.738Z,2210
2018-03-04T13:35:04.500Z,2250
2018-03-04T13:36:14.622Z,2250
2018-03-04T13:37:24.619Z,2175
2018-03-04T13:38:34.618Z,2145
2018-03-04T13:39:43.820Z,2185
2018-03-04T13:40:53.015Z,2130
2018-03-04T13:42:02.754Z,2050
2018-03-04T13:43:12.746Z,2060
2018-03-04T13:44:22.210Z,2115
2018-03-04T13:45:32.223Z,2155
2018-03-04T13:46:42.011Z,2170
2018-03-04T13:47:51.747Z,2145
2018-03-04T13:49:01.455Z,2100
2018-03-04T13:50:11.193Z,2075
2018-03-04T13:51:21.164Z,2030
2018-03-04T13:52:30.889Z,1960
2018-03-04T13:53:40.861Z,1895
2018-03-04T13:54:50.836Z,1920
2018-03-04T13:56:00.806Z,2005
2018-03-04T13:57:10.786Z,2030
2018-03-04T13:58:20.502Z,2065
2018-03-04T13:59:30.507Z,2030
2018-03-04T14:00:40.246Z,1995
2018-03-04T14:01:50.235Z,1985
2018-03-04T14:03:00.242Z,1980
2018-03-04T14:04:09.723Z,1985
2018-03-04T14:05:19.446Z,1955
2018-03-04T14:06:29.165Z,1945
2018-03-04T14:07:39.137Z,1930
2018-03-04T14:08:49.113Z,1925
2018-03-04T14:09:58.817Z,1945
2018-03-04T14:11:08.315Z,1960
2018-03-04T14:12:18.036Z,1940
2018-03-04T14:13:27.751Z,1905
2018-03-04T14:14:37.728Z,1890
2018-03-04T14:15:47.710Z,1910
2018-03-04T14:16:57.417Z,1900
2018-03-04T14:18:06.900Z,1900
2018-03-04T14:19:16.873Z,1900
2018-03-04T14:20:26.602Z,1905
2018-03-04T14:21:36.111Z,1895
2018-03-04T14:22:45.874Z,1870
2018-03-04T14:23:55.840Z,1830
2018-03-04T14:25:05.821Z,1795
2018-03-04T14:26:15.274Z,1790
2018-03-04T14:27:25.262Z,1790
2018-03-04T14:28:34.971Z,1770
2018-03-04T14:29:44.937Z,1745
2018-03-04T14:30:54.908Z,1775
2018-03-04T14:32:04.100Z,1770
2018-03-04T14:33:13.575Z,1755
2018-03-04T14:34:23.289Z,1755
2018-03-04T14:35:32.737Z,1735
2018-03-04T14:36:42.469Z,1690
2018-03-04T14:37:52.439Z,1660
2018-03-04T14:39:02.407Z,1650
2018-03-04T14:40:12.393Z,1615
2018-03-04T14:41:22.398Z,1625
2018-03-04T14:42:32.122Z,1615
2018-03-04T14:43:42.106Z,1580
2018-03-04T14:44:52.093Z,1550
2018-03-04T14:46:01.535Z,1525
2018-03-04T14:47:11.512Z,1520
2018-03-04T14:48:20.964Z,1545
2018-03-04T14:49:30.726Z,1530
2018-03-04T14:50:40.752Z,1525
2018-03-04T14:51:50.476Z,1485
2018-03-04T14:53:00.591Z,1450
2018-03-04T14:54:10.323Z,1440
2018-03-04T14:55:20.063Z,1425
2018-03-04T14:56:30.054Z,1415
2018-03-04T14:57:39.500Z,1390
2018-03-04T14:58:49.504Z,1385
2018-03-04T14:59:58.953Z,1350
2018-03-04T15:01:08.155Z,1275
2018-03-04T15:02:18.121Z,1295
2018-03-04T15:03:27.839Z,1330
2018-03-04T15:04:37.808Z,1320
2018-03-04T15:05:47.517Z,1270
2018-03-04T15:06:57.233Z,1255
2018-03-04T15:08:06.683Z,1260
2018-03-04T15:09:16.658Z,1235
2018-03-04T15:10:26.841Z,1205
2018-03-04T15:11:36.816Z,1175
2018-03-04T15:12:46.916Z,1115
2018-03-04T15:13:56.362Z,1100
2018-03-04T15:15:06.323Z,1115
2018-03-04T15:16:16.033Z,1100
2018-03-04T15:17:25.470Z,1070
2018-03-04T15:18:35.184Z,1055
2018-03-04T15:19:45.150Z,1050
2018-03-04T15:20:54.853Z,1010
2018-03-04T15:22:04.819Z,930
2018-03-04T15:23:14.534Z,920
2018-03-04T15:24:24.258Z,945
2018-03-04T15:25:34.248Z,910
2018-03-04T15:26:44.247Z,890
2018-03-04T15:27:54.015Z,900
2018-03-04T15:29:03.978Z,870
2018-03-04T15:30:13.701Z,850
2018-03-04T15:31:23.676Z,840
2018-03-04T15:32:33.112Z,820
2018-03-04T15:33:42.838Z,780
2018-03-04T15:34:52.828Z,750
2018-03-04T15:36:02.541Z,720
2018-03-04T15:37:12.010Z,710
2018-03-04T15:38:21.720Z,690
2018-03-04T15:39:31.176Z,680
2018-03-04T15:40:40.898Z,650
2018-03-04T15:41:50.625Z,645
2018-03-04T15:43:00.610Z,650
2018-03-04T15:44:10.332Z,615
2018-03-04T15:45:20.302Z,605
2018-03-04T15:46:29.996Z,585
2018-03-04T15:47:39.703Z,545
2018-03-04T15:48:49.444Z,520
2018-03-04T15:49:59.580Z,530
2018-03-04T15:51:09.577Z,525
2018-03-04T15:52:19.546Z,500
2018-03-04T15:53:29.513Z,480
2018-03-04T15:54:38.980Z,460
2018-03-04T15:55:48.689Z,465
2018-03-04T15:56:58.745Z,480
2018-03-04T15:58:08.478Z,430
2018-03-04T15:59:17.917Z,380
2018-03-04T16:00:27.116Z,380
2018-03-04T16:01:36.821Z,370
2018-03-04T16:02:46.794Z,345
2018-03-04T16:03:56.533Z,335
2018-03-04T16:05:06.249Z,315
2018-03-04T16:06:15.957Z,300
2018-03-04T16:07:25.420Z,295
2018-03-04T16:08:35.393Z,280
2018-03-04T16:09:44.846Z,265
2018-03-04T16:10:54.828Z,255
2018-03-04T16:12:04.830Z,240
2018-03-04T16:13:14.817Z,230
2018-03-04T16:14:24.538Z,220